Time,TemperatureF,DewpointF,PressureIn,WindDirection,WindDirectionDegrees,WindSpeedMPH,WindSpeedGustMPH,Humidity,HourlyPrecipIn,Conditions,Clouds,dailyrainin,SolarRadiationWatts/m^2,SoftwareType,DateUTC
2013-07-14 00:11:00,66.0,34.0,-100.00,ENE,76,10.0,18.0,30,0.00,,,0.00,0.000000,,2013-07-14 06:11:00,
2013-07-14 00:22:00,66.0,34.0,-100.00,ENE,76,10.0,18.0,30,0.00,,,0.00,0.000000,,2013-07-14 06:22:00,
2013-07-14 00:32:00,66.0,34.0,-100.00,ENE,76,10.0,18.0,30,0.00,,,0.00,0.000000,,2013-07-14 06:32:00,
2013-07-14 00:42:00,65.0,35.0,-100.00,ENE,69,7.0,17.0,33,0.00,,,0.00,0.000000,,2013-07-14 06:42:00,
2013-07-14 01:12:00,65.0,35.0,-100.00,ENE,69,7.0,17.0,33,0.00,,,0.00,0.000000,,2013-07-14 07:12:00,
2013-07-14 01:22:00,65.0,35.0,-100.00,ENE,69,7.0,17.0,33,0.00,,,0.00,0.000000,,2013-07-14 07:22:00,
2013-07-14 01:32:00,65.0,35.0,-100.00,ENE,69,7.0,17.0,33,0.00,,,0.00,0.000000,,2013-07-14 07:32:00,
2013-07-14 01:42:00,63.0,35.0,-100.00,East,101,4.0,15.0,35,0.00,,,0.00,0.000000,,2013-07-14 07:42:00,
2013-07-14 02:11:00,63.0,35.0,-100.00,East,101,4.0,15.0,35,0.00,,,0.00,0.000000,,2013-07-14 08:11:00,
2013-07-14 02:22:00,63.0,35.0,-100.00,East,101,4.0,15.0,35,0.00,,,0.00,0.000000,,2013-07-14 08:22:00,
2013-07-14 02:32:00,63.0,35.0,-100.00,East,101,4.0,15.0,35,0.00,,,0.00,0.000000,,2013-07-14 08:32:00,
2013-07-14 02:42:00,62.0,34.0,-100.00,South,191,4.0,13.0,35,0.00,,,0.00,0.000000,,2013-07-14 08:42:00,
2013-07-14 03:01:00,62.0,34.0,-100.00,South,191,4.0,13.0,35,0.00,,,0.00,0.000000,,2013-07-14 09:01:00,
2013-07-14 03:11:00,62.0,34.0,-100.00,South,191,4.0,13.0,35,0.00,,,0.00,0.000000,,2013-07-14 09:11:00,
2013-07-14 03:22:00,62.0,34.0,-100.00,South,191,4.0,13.0,35,0.00,,,0.00,0.000000,,2013-07-14 09:22:00,
2013-07-14 03:32:00,62.0,34.0,-100.00,South,191,4.0,13.0,35,0.00,,,0.00,0.000000,,2013-07-14 09:32:00,
2013-07-14 03:42:00,62.0,34.0,-100.00,WNW,284,4.0,20.0,35,0.00,,,0.00,0.000000,,2013-07-14 09:42:00,
2013-07-14 04:11:00,62.0,34.0,-100.00,WNW,284,4.0,20.0,35,0.00,,,0.00,0.000000,,2013-07-14 10:11:00,
2013-07-14 04:21:00,62.0,34.0,-100.00,WNW,284,4.0,20.0,35,0.00,,,0.00,0.000000,,2013-07-14 10:21:00,
2013-07-14 04:32:00,62.0,34.0,-100.00,WNW,284,4.0,20.0,35,0.00,,,0.00,0.000000,,2013-07-14 10:32:00,
2013-07-14 04:42:00,60.0,34.0,-100.00,West,264,1.0,14.0,38,0.00,,,0.00,0.000000,,2013-07-14 10:42:00,
2013-07-14 05:11:00,60.0,34.0,-100.00,West,264,1.0,14.0,38,0.00,,,0.00,0.000000,,2013-07-14 11:11:00,
2013-07-14 05:21:00,60.0,34.0,-100.00,West,264,1.0,14.0,38,0.00,,,0.00,0.000000,,2013-07-14 11:21:00,
2013-07-14 05:32:00,60.0,34.0,-100.00,West,264,1.0,14.0,38,0.00,,,0.00,0.000000,,2013-07-14 11:32:00,
2013-07-14 05:42:00,59.0,35.0,-100.00,NNW,328,2.0,10.0,41,0.00,,,0.00,0.000000,,2013-07-14 11:42:00,
2013-07-14 06:11:00,59.0,35.0,-100.00,NNW,328,2.0,10.0,41,0.00,,,0.00,0.000000,,2013-07-14 12:11:00,
2013-07-14 06:22:00,59.0,35.0,-100.00,NNW,328,2.0,10.0,41,0.00,,,0.00,0.000000,,2013-07-14 12:22:00,
2013-07-14 06:32:00,59.0,35.0,-100.00,NNW,328,2.0,10.0,41,0.00,,,0.00,0.000000,,2013-07-14 12:32:00,
2013-07-14 06:42:00,60.0,35.0,-100.00,ENE,61,7.0,19.0,39,0.00,,,0.00,4.000000,,2013-07-14 12:42:00,
2013-07-14 07:11:00,60.0,35.0,-100.00,ENE,61,7.0,19.0,39,0.00,,,0.00,4.000000,,2013-07-14 13:11:00,
2013-07-14 07:22:00,60.0,35.0,-100.00,ENE,61,7.0,19.0,39,0.00,,,0.00,4.000000,,2013-07-14 13:22:00,
2013-07-14 07:32:00,60.0,35.0,-100.00,ENE,61,7.0,19.0,39,0.00,,,0.00,4.000000,,2013-07-14 13:32:00,
2013-07-14 07:42:00,64.0,37.0,-100.00,East,82,4.0,15.0,36,0.00,,,0.00,62.000000,,2013-07-14 13:42:00,
2013-07-14 08:11:00,64.0,37.0,-100.00,East,82,4.0,15.0,36,0.00,,,0.00,62.000000,,2013-07-14 14:11:00,
2013-07-14 08:23:00,64.0,37.0,-100.00,East,82,4.0,15.0,36,0.00,,,0.00,62.000000,,2013-07-14 14:23:00,
2013-07-14 08:33:00,64.0,37.0,-100.00,East,82,4.0,15.0,36,0.00,,,0.00,62.000000,,2013-07-14 14:33:00,
2013-07-14 08:42:00,68.0,39.0,-100.00,NNW,345,2.0,12.0,34,0.00,,,0.00,206.000000,,2013-07-14 14:42:00,
2013-07-14 09:12:00,68.0,39.0,-100.00,NNW,345,2.0,12.0,34,0.00,,,0.00,206.000000,,2013-07-14 15:12:00,
2013-07-14 09:22:00,68.0,39.0,-100.00,NNW,345,2.0,12.0,34,0.00,,,0.00,206.000000,,2013-07-14 15:22:00,
2013-07-14 09:32:00,68.0,39.0,-100.00,NNW,345,2.0,12.0,34,0.00,,,0.00,206.000000,,2013-07-14 15:32:00,
2013-07-14 09:42:00,77.0,39.0,-100.00,East,87,2.0,8.0,26,0.00,,,0.00,417.000000,,2013-07-14 15:42:00,
2013-07-14 10:11:00,77.0,39.0,-100.00,East,87,2.0,8.0,26,0.00,,,0.00,417.000000,,2013-07-14 16:11:00,
2013-07-14 10:22:00,77.0,39.0,-100.00,East,87,2.0,8.0,26,0.00,,,0.00,417.000000,,2013-07-14 16:22:00,
2013-07-14 10:32:00,77.0,39.0,-100.00,East,87,2.0,8.0,26,0.00,,,0.00,417.000000,,2013-07-14 16:32:00,
2013-07-14 10:42:00,80.0,42.0,-100.00,SSW,199,2.0,7.0,26,0.00,,,0.00,589.000000,,2013-07-14 16:42:00,
2013-07-14 11:11:00,80.0,42.0,-100.00,SSW,199,2.0,7.0,26,0.00,,,0.00,589.000000,,2013-07-14 17:11:00,
2013-07-14 11:22:00,80.0,42.0,-100.00,SSW,199,2.0,7.0,26,0.00,,,0.00,589.000000,,2013-07-14 17:22:00,
2013-07-14 11:32:00,80.0,42.0,-100.00,SSW,199,2.0,7.0,26,0.00,,,0.00,589.000000,,2013-07-14 17:32:00,
2013-07-14 11:42:00,83.0,36.0,-100.00,WSW,254,3.0,9.0,19,0.00,,,0.00,742.000000,,2013-07-14 17:42:00,
2013-07-14 12:11:00,83.0,36.0,-100.00,WSW,254,3.0,9.0,19,0.00,,,0.00,742.000000,,2013-07-14 18:11:00,
2013-07-14 12:21:00,83.0,36.0,-100.00,WSW,254,3.0,9.0,19,0.00,,,0.00,742.000000,,2013-07-14 18:21:00,
2013-07-14 12:32:00,83.0,36.0,-100.00,WSW,254,3.0,9.0,19,0.00,,,0.00,742.000000,,2013-07-14 18:32:00,
2013-07-14 12:42:00,86.0,35.0,-100.00,WSW,240,6.0,11.0,16,0.00,,,0.00,856.000000,,2013-07-14 18:42:00,
2013-07-14 13:11:00,86.0,35.0,-100.00,WSW,240,6.0,11.0,16,0.00,,,0.00,856.000000,,2013-07-14 19:11:00,
2013-07-14 13:22:00,86.0,35.0,-100.00,WSW,240,6.0,11.0,16,0.00,,,0.00,856.000000,,2013-07-14 19:22:00,
2013-07-14 13:32:00,86.0,35.0,-100.00,WSW,240,6.0,11.0,16,0.00,,,0.00,856.000000,,2013-07-14 19:32:00,
2013-07-14 13:42:00,86.0,35.0,-100.00,West,262,8.0,16.0,16,0.00,,,0.00,926.000000,,2013-07-14 19:42:00,
2013-07-14 14:11:00,86.0,35.0,-100.00,West,262,8.0,16.0,16,0.00,,,0.00,926.000000,,2013-07-14 20:11:00,
2013-07-14 14:22:00,86.0,35.0,-100.00,West,262,8.0,16.0,16,0.00,,,0.00,926.000000,,2013-07-14 20:22:00,
2013-07-14 14:32:00,86.0,35.0,-100.00,West,262,8.0,16.0,16,0.00,,,0.00,926.000000,,2013-07-14 20:32:00,
2013-07-14 14:42:00,87.0,34.0,-100.00,SSW,201,9.0,16.0,15,0.00,,,0.00,938.000000,,2013-07-14 20:42:00,
2013-07-14 15:11:00,87.0,34.0,-100.00,SSW,201,9.0,16.0,15,0.00,,,0.00,938.000000,,2013-07-14 21:11:00,
2013-07-14 15:22:00,87.0,34.0,-100.00,SSW,201,9.0,16.0,15,0.00,,,0.00,938.000000,,2013-07-14 21:22:00,
2013-07-14 15:32:00,87.0,34.0,-100.00,SSW,201,9.0,16.0,15,0.00,,,0.00,938.000000,,2013-07-14 21:32:00,
2013-07-14 15:42:00,89.0,34.0,-100.00,South,179,6.0,15.0,14,0.00,,,0.00,915.000000,,2013-07-14 21:42:00,
2013-07-14 16:11:00,89.0,34.0,-100.00,South,179,6.0,15.0,14,0.00,,,0.00,915.000000,,2013-07-14 22:11:00,
2013-07-14 16:22:00,89.0,34.0,-100.00,South,179,6.0,15.0,14,0.00,,,0.00,915.000000,,2013-07-14 22:22:00,
2013-07-14 16:32:00,89.0,34.0,-100.00,South,179,6.0,15.0,14,0.00,,,0.00,915.000000,,2013-07-14 22:32:00,
2013-07-14 16:42:00,88.0,33.0,-100.00,SE,146,9.0,19.0,14,0.00,,,0.00,837.000000,,2013-07-14 22:42:00,
2013-07-14 17:11:00,88.0,33.0,-100.00,SE,146,9.0,19.0,14,0.00,,,0.00,837.000000,,2013-07-14 23:11:00,
2013-07-14 17:22:00,88.0,33.0,-100.00,SE,146,9.0,19.0,14,0.00,,,0.00,837.000000,,2013-07-14 23:22:00,
2013-07-14 17:32:00,88.0,33.0,-100.00,SE,146,9.0,19.0,14,0.00,,,0.00,837.000000,,2013-07-14 23:32:00,
2013-07-14 17:42:00,89.0,32.0,-100.00,SSE,155,7.0,18.0,13,0.00,,,0.00,713.000000,,2013-07-14 23:42:00,
2013-07-14 18:02:00,89.0,32.0,-100.00,SSE,155,7.0,18.0,13,0.00,,,0.00,713.000000,,2013-07-15 00:02:00,
2013-07-14 18:11:00,89.0,32.0,-100.00,SSE,155,7.0,18.0,13,0.00,,,0.00,713.000000,,2013-07-15 00:11:00,
2013-07-14 18:22:00,89.0,32.0,-100.00,SSE,155,7.0,18.0,13,0.00,,,0.00,713.000000,,2013-07-15 00:22:00,
2013-07-14 18:32:00,89.0,32.0,-100.00,SSE,155,7.0,18.0,13,0.00,,,0.00,713.000000,,2013-07-15 00:32:00,
2013-07-14 18:42:00,89.0,34.0,-100.00,South,187,8.0,19.0,14,0.00,,,0.00,553.000000,,2013-07-15 00:42:00,
2013-07-14 19:11:00,89.0,34.0,-100.00,South,187,8.0,19.0,14,0.00,,,0.00,553.000000,,2013-07-15 01:11:00,
2013-07-14 19:22:00,89.0,34.0,-100.00,South,187,8.0,19.0,14,0.00,,,0.00,553.000000,,2013-07-15 01:22:00,
2013-07-14 19:32:00,89.0,34.0,-100.00,South,187,8.0,19.0,14,0.00,,,0.00,553.000000,,2013-07-15 01:32:00,
2013-07-14 19:42:00,87.0,32.0,-100.00,SE,129,6.0,11.0,14,0.00,,,0.00,373.000000,,2013-07-15 01:42:00,
2013-07-14 20:11:00,87.0,32.0,-100.00,SE,129,6.0,11.0,14,0.00,,,0.00,373.000000,,2013-07-15 02:11:00,
2013-07-14 20:22:00,87.0,32.0,-100.00,SE,129,6.0,11.0,14,0.00,,,0.00,373.000000,,2013-07-15 02:22:00,
2013-07-14 20:32:00,87.0,32.0,-100.00,SE,129,6.0,11.0,14,0.00,,,0.00,373.000000,,2013-07-15 02:32:00,
2013-07-14 20:42:00,87.0,34.0,-100.00,NW,326,1.0,9.0,15,0.00,,,0.00,191.000000,,2013-07-15 02:42:00,
2013-07-14 21:11:00,87.0,34.0,-100.00,NW,326,1.0,9.0,15,0.00,,,0.00,191.000000,,2013-07-15 03:11:00,
2013-07-14 21:21:00,87.0,34.0,-100.00,NW,326,1.0,9.0,15,0.00,,,0.00,191.000000,,2013-07-15 03:21:00,
2013-07-14 21:32:00,87.0,34.0,-100.00,NW,326,1.0,9.0,15,0.00,,,0.00,191.000000,,2013-07-15 03:32:00,
2013-07-14 22:42:00,78.0,35.0,-100.00,NNE,30,2.0,10.0,21,0.00,,,0.00,0.000000,,2013-07-15 04:42:00,
2013-07-14 23:11:00,78.0,35.0,-100.00,NNE,30,2.0,10.0,21,0.00,,,0.00,0.000000,,2013-07-15 05:11:00,
2013-07-14 23:21:00,78.0,35.0,-100.00,NNE,30,2.0,10.0,21,0.00,,,0.00,0.000000,,2013-07-15 05:21:00,
2013-07-14 23:32:00,78.0,35.0,-100.00,NNE,30,2.0,10.0,21,0.00,,,0.00,0.000000,,2013-07-15 05:32:00,
2013-07-14 23:42:00,75.0,37.0,-100.00,NNE,33,3.0,9.0,25,0.00,,,0.00,0.000000,,2013-07-15 05:42:00,